Terminal Aerodrome Forecast
Issued by NWS Goodland, KS

Home | Current Version | Previous Version | Text Only | Print | Product List | Glossary On
Versions: 1 2 3 4 5 6 7 8 9 10 11 12 13 14 15 16 17 18
092
FTUS43 KGLD 211720
TAFGLD
TAF
KGLD 211720Z 2118/2218 32007KT P6SM FEW060 SCT120
     FM212100 10006KT P6SM VCTS SCT050CB BKN110
     FM220400 22005KT P6SM BKN080
     FM221000 27004KT P6SM SCT200
     FM221400 31010KT P6SM SCT200=

USA.gov is the U.S. government's official web portal to all federal, state and local government web resources and services.